航空気象通報

ウインドサーファーのための航空気象通報による風予報です。

1/11-1/13の航空気象通報

2019年01月11日 21時58分14秒 | お天気
羽田空港
TAF RJTT 111106Z 1112/1218 02010KT 9999 FEW030
日本時間11日21時-13日03時:020度から10ノットの風


静岡空港
TAF RJNS 111106Z 1112/1218 01005KT 9999 FEW025 BKN040
BECMG 1200/1203 05006KT
TEMPO 1203/1209 4000 -RA BR FEW005 BKN008
BECMG 1209/1212 36004KT
TEMPO 1209/1215 FEW005 BKN008
日本時間11日21時-12日09時:010度から5ノットの風
09-12時:風が変化
12-18時:050度から6ノットの風
18-21時:風が変化
21時-13日03時:360度から4ノットの風

但し、12日12-18時の間:時々

福岡空港
TAF RJFF 111108Z 1112/1218 15005KT 9999 FEW030
BECMG 1209/1212 36006KT
TEMPO 1209/1212 4000 -SHRA BR
日本時間11日21時-12日18時:150度から5ノットの風
18-21時:風が変化
21時-13日03時:360度から6ノットの風

但し、12日18-21時の間:時々

那覇空港
TAF ROAH 111105Z 1112/1218 18014KT 9999 FEW015 BKN030
TEMPO 1118/1121 4000 SHRA
BECMG 1119/1121 34014KT
日本時間11日21時-12日04時:180度から14ノットの風
04-06時:風が変化
06時-13日03時:340度から14ノットの風

但し、12日03-06時の間:時々

石垣空港
TAF ROIG 111107Z 1112/1218 27005KT 9999 FEW010 BKN030
TEMPO 1117/1119 4000 SHRA
BECMG 1118/1120 35010KT
日本時間11日21時-12日03時:270度から5ノットの風
03-05時:風が変化
05時-13日03時:350度から10ノットの風

但し、12日02-04時の間:時々

マウイのカフルイ空港
PHOG 111124Z 1112/1212 14005KT P6SM FEW035 BKN060
FM112100 02010KT P6SM FEW035 SCT050
FM120500 14005KT P6SM FEW035 SCT050 AMD LTD TO VIS AND WIND TIL 111600
ハワイ時間11日02-11時:140度から5ノットの風

11-19時:020度から10ノットの風
19時-12日02時:140度から5ノットの風


サイパン空港
PGSN 111127Z 1112/1212 03009KT P6SM FEW020 FEW045
FM112300 04016KT P6SM FEW020 FEW045
マリアナ時間11日22時-12日09時:030度から9ノットの風
09-22時:040度から16ノットの風

ジャンル:
お天気
コメント   この記事についてブログを書く
« 1/7-1/9の航空気象通報 | トップ | 1/12-1/14の航空気象通報 »
最近の画像もっと見る

コメントを投稿

ブログ作成者から承認されるまでコメントは反映されません。

お天気」カテゴリの最新記事